Main page
METAR-TAF:

METAR-TAF

Airports :

Kuressaare Airport

Kuressaare, Estonia

latitude: 58-13-48N, longitude: 022-30-34E, elevation: 4 m

Current weather observation

The report was made 34 minutes ago, at 02:50 UTC
Wind 6 kt from the South/Southwest
Temperature 18°C
Humidity 88%
Pressure 1011 hPa
Visibility 10 km or more
Few clouds at a height of 1600 ft
light rain

METAR: EEKE 200250Z AUTO 21006KT 9999NDV -RA FEW016 18/16 Q1011

Time: 06:24 (03:24 UTC)

Forecast

The report was made 13 hours and 24 minutes ago, at 14:00 UTC
Forecast valid from 19 at 15 UTC to 19 at 21 UTC
Wind 12 kt from the West
Visibility 10 km or more
Broken clouds at a height of 3000 ft
Temporary
from 19 at 15 UTC to 19 at 21 UTC
Scattered clouds at a height of 2500 ft, Cumulonimbus.
Probability 40% :
Temporary
from 19 at 15 UTC to 19 at 21 UTC
Visibility: 4000 m
rain showers

TAF: EEKE 191400Z 1915/1921 27012KT 9999 BKN030 TEMPO 1915/1921 SCT025CB PROB40 TEMPO 1915/1921 4000 SHRA

Weather observations and forecasts of more than 4000 airports (METAR and TAF reports).

The available stations are represented by yellow and red dots on the map.

Hover mouse over dot to see the name of the station.

Then click to see weather observations and forecasts.

To change the map : click on the green buttons with a black cross to zoom in, on the green button with a dash to zoom out, or on the green arrows for adjacent maps.


METAR-TAF: